createdAt,value
2019-05-19T00:00:25.543Z,82.50
2019-05-19T00:02:53.314Z,82.30
2019-05-19T00:05:21.632Z,82.30
2019-05-19T00:07:50.006Z,82.50
2019-05-19T00:10:18.404Z,82.50
2019-05-19T00:12:46.783Z,82.40
2019-05-19T00:15:15.236Z,82.00
2019-05-19T00:17:43.612Z,82.10
2019-05-19T00:20:12.004Z,81.80
2019-05-19T00:22:40.451Z,82.30
2019-05-19T00:25:08.856Z,83.80
2019-05-19T00:27:37.226Z,85.10
2019-05-19T00:30:08.657Z,85.80
2019-05-19T00:32:37.038Z,86.30
2019-05-19T00:35:06.535Z,86.20
2019-05-19T00:37:35.112Z,87.10
2019-05-19T00:40:04.151Z,87.00
2019-05-19T00:42:32.599Z,86.10
2019-05-19T00:45:00.995Z,85.40
2019-05-19T00:47:29.381Z,84.80
2019-05-19T00:49:57.763Z,84.70
2019-05-19T00:52:26.138Z,84.60
2019-05-19T00:54:54.554Z,84.70
2019-05-19T00:57:22.923Z,85.20
2019-05-19T00:59:51.323Z,85.60
2019-05-19T01:02:19.729Z,86.10
2019-05-19T01:04:48.147Z,85.70
2019-05-19T01:07:16.519Z,85.00
2019-05-19T01:09:44.902Z,85.20
2019-05-19T01:12:13.201Z,84.90
2019-05-19T01:14:41.601Z,84.60
2019-05-19T01:17:10.993Z,84.50
2019-05-19T01:19:39.372Z,84.10
2019-05-19T01:22:07.804Z,84.80
2019-05-19T01:24:36.216Z,84.40
2019-05-19T01:27:04.643Z,86.00
2019-05-19T01:29:33.035Z,88.10
2019-05-19T01:32:01.412Z,88.60
2019-05-19T01:34:29.802Z,88.40
2019-05-19T01:36:58.176Z,87.60
2019-05-19T01:39:26.609Z,87.70
2019-05-19T01:41:54.974Z,87.30
2019-05-19T01:44:23.363Z,87.10
2019-05-19T01:46:51.740Z,86.90
2019-05-19T01:49:20.167Z,86.30
2019-05-19T01:51:48.555Z,86.90
2019-05-19T01:54:16.932Z,86.60
2019-05-19T01:56:45.427Z,86.30
2019-05-19T01:59:13.879Z,86.30
2019-05-19T02:01:42.272Z,86.30
2019-05-19T02:04:10.643Z,86.40
2019-05-19T02:06:39.031Z,86.30
2019-05-19T02:09:07.491Z,86.30
2019-05-19T02:11:35.892Z,86.80
2019-05-19T02:14:04.632Z,87.20
2019-05-19T02:16:33.075Z,88.70
2019-05-19T02:19:01.452Z,90.10
2019-05-19T02:21:29.844Z,90.00
2019-05-19T02:23:58.215Z,89.90
2019-05-19T02:26:26.600Z,89.30
2019-05-19T02:28:54.967Z,88.60
2019-05-19T02:31:23.355Z,88.20
2019-05-19T02:33:51.758Z,88.60
2019-05-19T02:36:20.190Z,89.70
2019-05-19T02:38:48.563Z,89.00
2019-05-19T02:41:17.514Z,88.70
2019-05-19T02:43:46.466Z,88.40
2019-05-19T02:46:14.855Z,88.70
2019-05-19T02:48:43.231Z,88.70
2019-05-19T02:51:11.799Z,88.50
2019-05-19T02:53:40.429Z,88.30
2019-05-19T02:56:08.821Z,88.00
2019-05-19T02:58:37.208Z,88.10
2019-05-19T03:01:05.583Z,87.40
2019-05-19T03:03:34.021Z,87.10
2019-05-19T03:06:02.389Z,87.10
2019-05-19T03:08:30.756Z,87.10
2019-05-19T03:10:59.151Z,86.90
2019-05-19T03:13:27.523Z,87.00
2019-05-19T03:15:55.919Z,87.10
2019-05-19T03:18:24.303Z,87.10
2019-05-19T03:21:09.431Z,87.20
2019-05-19T03:23:22.745Z,87.40
2019-05-19T03:25:51.116Z,87.10
2019-05-19T03:28:19.601Z,87.50
2019-05-19T03:30:58.125Z,89.30
2019-05-19T03:33:36.940Z,90.20
2019-05-19T03:36:05.310Z,90.10
2019-05-19T03:38:33.713Z,90.00
2019-05-19T03:41:02.085Z,89.70
2019-05-19T03:43:30.476Z,90.10
2019-05-19T03:45:58.940Z,89.40
2019-05-19T03:48:27.332Z,89.30
2019-05-19T03:50:55.716Z,88.70
2019-05-19T03:53:24.122Z,88.30
2019-05-19T03:55:52.479Z,88.40
2019-05-19T03:58:20.873Z,88.60
2019-05-19T04:00:49.268Z,88.40
2019-05-19T04:03:17.718Z,88.60
2019-05-19T04:05:46.093Z,88.70
2019-05-19T04:08:14.485Z,88.60
2019-05-19T04:10:42.844Z,88.60
2019-05-19T04:13:11.348Z,88.60
2019-05-19T04:15:39.721Z,88.50
2019-05-19T04:18:08.200Z,89.30
2019-05-19T04:20:36.600Z,88.50
2019-05-19T04:23:04.972Z,88.80
2019-05-19T04:25:33.352Z,88.70
2019-05-19T04:28:01.742Z,88.90
2019-05-19T04:30:30.132Z,89.70
2019-05-19T04:32:58.519Z,90.40
2019-05-19T04:35:26.919Z,89.90
2019-05-19T04:37:55.325Z,89.50
2019-05-19T04:40:23.698Z,89.40
2019-05-19T04:42:52.088Z,89.10
2019-05-19T04:45:20.461Z,88.90
2019-05-19T04:47:51.637Z,88.50
2019-05-19T04:50:20.016Z,88.30
2019-05-19T04:52:48.413Z,87.80
2019-05-19T04:55:16.809Z,87.20
2019-05-19T04:57:45.191Z,86.90
2019-05-19T05:00:13.569Z,86.50
2019-05-19T05:02:41.960Z,86.00
2019-05-19T05:05:10.703Z,86.00
2019-05-19T05:07:39.100Z,86.40
2019-05-19T05:10:07.474Z,85.90
2019-05-19T05:12:35.873Z,85.30
2019-05-19T05:15:05.678Z,84.40
2019-05-19T05:17:34.083Z,82.90
2019-05-19T05:20:02.624Z,81.70
2019-05-19T05:22:31.024Z,79.90
2019-05-19T05:24:59.407Z,79.20
2019-05-19T05:27:27.835Z,78.70
2019-05-19T05:29:56.209Z,78.10
2019-05-19T05:32:24.599Z,78.00
2019-05-19T05:34:52.984Z,77.80
2019-05-19T05:37:21.399Z,77.20
2019-05-19T05:39:49.760Z,76.30
2019-05-19T05:42:18.149Z,75.60
2019-05-19T05:44:46.531Z,75.70
2019-05-19T05:47:14.907Z,75.70
2019-05-19T05:49:43.313Z,74.20
2019-05-19T05:52:11.704Z,72.90
2019-05-19T05:54:40.102Z,72.50
2019-05-19T05:57:08.477Z,72.00
2019-05-19T05:59:36.876Z,72.00
2019-05-19T06:02:05.265Z,72.50
2019-05-19T06:04:33.668Z,71.90
2019-05-19T06:07:02.063Z,71.50
2019-05-19T06:09:30.477Z,71.90
2019-05-19T06:11:58.861Z,71.00
2019-05-19T06:14:27.277Z,71.40
2019-05-19T06:16:55.677Z,71.70
2019-05-19T06:19:24.072Z,71.00
2019-05-19T06:21:52.523Z,70.60
2019-05-19T06:24:20.923Z,71.20
2019-05-19T06:26:49.290Z,71.90
2019-05-19T06:29:17.690Z,71.50
2019-05-19T06:31:46.060Z,71.70
2019-05-19T06:34:15.428Z,71.40
2019-05-19T06:36:43.813Z,72.60
2019-05-19T06:39:12.270Z,73.30
2019-05-19T06:41:40.733Z,73.70
2019-05-19T06:44:09.151Z,74.40
2019-05-19T06:46:40.640Z,74.70
2019-05-19T06:49:09.046Z,74.40
2019-05-19T06:51:37.421Z,75.10
2019-05-19T06:54:30.767Z,75.20
2019-05-19T06:57:00.224Z,75.80
2019-05-19T06:59:30.246Z,76.10
2019-05-19T07:01:58.620Z,74.40
2019-05-19T07:04:29.918Z,75.20
2019-05-19T07:06:58.436Z,74.40
2019-05-19T07:09:26.909Z,74.00
2019-05-19T07:12:03.169Z,73.30
2019-05-19T07:14:43.454Z,73.00
2019-05-19T07:17:11.821Z,72.60
2019-05-19T07:19:49.958Z,72.30
2019-05-19T07:22:41.360Z,72.00
2019-05-19T07:25:09.755Z,71.70
2019-05-19T07:27:38.147Z,71.10
2019-05-19T07:30:07.471Z,71.00
2019-05-19T07:32:35.846Z,70.50
2019-05-19T07:35:07.906Z,71.20
2019-05-19T07:37:36.278Z,70.30
2019-05-19T07:40:05.514Z,70.60
2019-05-19T07:42:33.894Z,71.70
2019-05-19T07:45:02.279Z,71.10
2019-05-19T07:47:30.668Z,70.50
2019-05-19T07:49:59.065Z,71.40
2019-05-19T07:52:27.446Z,70.80
2019-05-19T07:54:55.847Z,70.40
2019-05-19T07:57:24.217Z,69.80
2019-05-19T07:59:52.617Z,70.50
2019-05-19T08:02:21.040Z,70.30
2019-05-19T08:04:49.423Z,70.30
2019-05-19T08:07:17.814Z,70.40
2019-05-19T08:09:46.209Z,70.70
2019-05-19T08:12:16.622Z,72.10
2019-05-19T08:14:46.640Z,70.70
2019-05-19T08:17:15.051Z,70.30
2019-05-19T08:19:43.438Z,69.20
2019-05-19T08:22:11.823Z,70.10
2019-05-19T08:24:40.139Z,69.20
2019-05-19T08:27:08.548Z,69.60
2019-05-19T08:29:36.922Z,70.70
2019-05-19T08:32:05.329Z,68.70
2019-05-19T08:34:33.708Z,69.20
2019-05-19T08:37:02.198Z,69.80
2019-05-19T08:39:30.732Z,69.50
2019-05-19T08:41:59.126Z,69.60
2019-05-19T08:44:27.516Z,69.70
2019-05-19T08:46:55.940Z,68.70
2019-05-19T08:49:24.624Z,68.70
2019-05-19T08:51:53.576Z,68.90
2019-05-19T08:54:22.127Z,66.60
2019-05-19T08:56:50.930Z,65.30
2019-05-19T08:59:19.317Z,66.70
2019-05-19T09:01:49.050Z,64.40
2019-05-19T09:04:17.479Z,64.40
2019-05-19T09:06:45.893Z,63.80
2019-05-19T09:09:14.273Z,62.80
2019-05-19T09:11:42.677Z,64.10
2019-05-19T09:14:11.056Z,63.50
2019-05-19T09:16:39.466Z,62.50
2019-05-19T09:19:07.827Z,63.60
2019-05-19T09:21:36.585Z,63.60
2019-05-19T09:24:05.528Z,63.00
2019-05-19T09:26:33.879Z,60.80
2019-05-19T09:29:02.310Z,62.10
2019-05-19T09:31:30.710Z,62.50
2019-05-19T09:33:59.083Z,60.10
2019-05-19T09:36:27.479Z,60.10
2019-05-19T09:38:55.844Z,59.00
2019-05-19T09:41:24.860Z,61.00
2019-05-19T09:43:53.264Z,59.80
2019-05-19T09:46:21.672Z,61.00
2019-05-19T09:48:51.738Z,60.80
2019-05-19T09:51:20.089Z,58.50
2019-05-19T09:53:48.470Z,57.10
2019-05-19T09:56:16.859Z,58.00
2019-05-19T09:58:45.232Z,58.90
2019-05-19T10:01:13.628Z,58.50
2019-05-19T10:03:42.008Z,58.80
2019-05-19T10:06:10.407Z,58.20
2019-05-19T10:08:44.883Z,58.50
2019-05-19T10:11:35.979Z,60.90
2019-05-19T10:14:04.337Z,63.80
2019-05-19T10:16:32.735Z,59.20
2019-05-19T10:19:01.120Z,59.90
2019-05-19T10:21:29.516Z,58.10
2019-05-19T10:23:57.888Z,57.90
2019-05-19T10:26:27.063Z,59.50
2019-05-19T10:28:55.443Z,58.80
2019-05-19T10:31:23.910Z,57.80
2019-05-19T10:33:52.641Z,57.80
2019-05-19T10:36:20.996Z,55.50
2019-05-19T10:38:49.387Z,55.60
2019-05-19T10:41:17.767Z,54.90
2019-05-19T10:43:47.851Z,54.60
2019-05-19T10:46:16.596Z,55.50
2019-05-19T10:48:44.976Z,54.50
2019-05-19T10:51:13.356Z,52.60
2019-05-19T10:53:41.738Z,54.10
2019-05-19T10:56:10.120Z,53.60
2019-05-19T10:58:38.540Z,52.70
2019-05-19T11:01:06.897Z,53.10
2019-05-19T11:03:35.310Z,51.00
2019-05-19T11:06:03.702Z,48.90
2019-05-19T11:08:32.088Z,48.50
2019-05-19T11:11:00.450Z,49.30
2019-05-19T11:13:28.834Z,48.10
2019-05-19T11:15:57.209Z,48.70
2019-05-19T11:18:25.595Z,49.60
2019-05-19T11:20:53.980Z,48.20
2019-05-19T11:23:22.381Z,47.10
2019-05-19T11:25:51.837Z,45.90
2019-05-19T11:28:20.488Z,45.50
2019-05-19T11:30:48.903Z,46.50
2019-05-19T11:33:17.295Z,46.50
2019-05-19T11:35:45.672Z,47.90
2019-05-19T11:38:14.119Z,46.60
2019-05-19T11:40:42.471Z,47.20
2019-05-19T11:43:10.913Z,49.00
2019-05-19T11:45:39.296Z,48.30
2019-05-19T11:48:07.685Z,48.90
2019-05-19T11:50:36.088Z,47.40
2019-05-19T11:53:04.468Z,49.40
2019-05-19T11:55:32.835Z,51.50
2019-05-19T11:58:01.236Z,48.30
2019-05-19T12:00:29.601Z,49.80
2019-05-19T12:02:57.991Z,49.20
2019-05-19T12:05:26.404Z,50.90
2019-05-19T12:07:54.792Z,49.10
2019-05-19T12:10:23.171Z,48.80
2019-05-19T12:12:51.578Z,47.10
2019-05-19T12:15:19.950Z,49.10
2019-05-19T12:17:48.324Z,46.80
2019-05-19T12:20:16.715Z,47.90
2019-05-19T12:22:45.084Z,48.00
2019-05-19T12:25:13.505Z,49.30
2019-05-19T12:27:41.867Z,49.70
2019-05-19T12:30:10.404Z,48.40
2019-05-19T12:32:38.777Z,46.90
2019-05-19T12:35:07.249Z,48.60
2019-05-19T12:37:35.618Z,47.40
2019-05-19T12:40:11.082Z,48.40
2019-05-19T12:42:39.444Z,46.90
2019-05-19T12:45:08.543Z,48.80
2019-05-19T12:47:36.872Z,47.10
2019-05-19T12:50:08.247Z,46.70
2019-05-19T12:52:36.579Z,46.80
2019-05-19T12:55:05.674Z,47.70
2019-05-19T12:57:34.069Z,47.60
2019-05-19T13:00:02.578Z,46.80
2019-05-19T13:02:30.929Z,47.50
2019-05-19T13:05:04.732Z,45.70
2019-05-19T13:07:29.431Z,48.10
2019-05-19T13:09:57.907Z,47.60
2019-05-19T13:12:26.357Z,49.60
2019-05-19T13:14:54.767Z,46.80
2019-05-19T13:17:23.143Z,47.90
2019-05-19T13:19:51.631Z,46.70
2019-05-19T13:22:19.999Z,45.90
2019-05-19T13:24:48.391Z,47.00
2019-05-19T13:27:16.768Z,47.70
2019-05-19T13:29:45.464Z,47.90
2019-05-19T13:32:13.842Z,48.00
2019-05-19T13:34:42.246Z,47.50
2019-05-19T13:37:10.687Z,47.50
2019-05-19T13:39:39.088Z,48.50
2019-05-19T13:42:07.459Z,46.50
2019-05-19T13:44:35.885Z,46.90
2019-05-19T13:47:04.243Z,47.90
2019-05-19T13:49:32.636Z,49.10
2019-05-19T13:52:01.017Z,48.00
2019-05-19T13:54:29.428Z,47.70
2019-05-19T13:57:11.334Z,48.60
2019-05-19T13:59:27.847Z,48.10
2019-05-19T14:01:56.287Z,47.90
2019-05-19T14:04:24.695Z,47.80
2019-05-19T14:06:53.052Z,47.40
2019-05-19T14:09:21.453Z,46.30
2019-05-19T14:11:49.851Z,47.10
2019-05-19T14:14:18.661Z,46.90
2019-05-19T14:16:47.171Z,48.10
2019-05-19T14:19:15.556Z,48.20
2019-05-19T14:21:44.033Z,48.90
2019-05-19T14:24:12.842Z,47.70
2019-05-19T14:26:41.922Z,48.10
2019-05-19T14:29:10.362Z,47.70
2019-05-19T14:31:38.910Z,47.70
2019-05-19T14:34:07.671Z,47.40
2019-05-19T14:36:36.284Z,47.50
2019-05-19T14:39:06.260Z,47.90
2019-05-19T14:41:36.343Z,47.60
2019-05-19T14:44:05.168Z,47.40
2019-05-19T14:46:33.991Z,47.60
2019-05-19T14:49:02.410Z,47.30
2019-05-19T14:51:30.907Z,46.40
2019-05-19T14:54:00.063Z,47.10
2019-05-19T14:56:28.465Z,47.80
2019-05-19T14:58:56.831Z,46.70
2019-05-19T15:01:25.290Z,46.00
2019-05-19T15:03:53.847Z,45.50
2019-05-19T15:06:22.845Z,46.80
2019-05-19T15:08:53.985Z,45.90
2019-05-19T15:11:23.272Z,45.40
2019-05-19T15:13:56.889Z,46.20
2019-05-19T15:16:25.394Z,45.50
2019-05-19T15:18:53.844Z,46.20
2019-05-19T15:21:22.242Z,46.80
2019-05-19T15:23:50.610Z,46.90
2019-05-19T15:26:19.009Z,47.30
2019-05-19T15:28:47.377Z,47.20
2019-05-19T15:31:15.786Z,48.80
2019-05-19T15:33:44.376Z,47.60
2019-05-19T15:36:12.771Z,47.10
2019-05-19T15:38:41.140Z,48.10
2019-05-19T15:41:09.601Z,48.10
2019-05-19T15:43:37.967Z,48.40
2019-05-19T15:46:06.354Z,48.80
2019-05-19T15:48:34.747Z,48.50
2019-05-19T15:51:03.117Z,47.90
2019-05-19T15:53:31.504Z,48.00
2019-05-19T15:55:59.894Z,49.20
2019-05-19T15:58:28.294Z,48.80
2019-05-19T16:00:56.666Z,49.20
2019-05-19T16:03:25.036Z,49.50
2019-05-19T16:05:53.440Z,50.00
2019-05-19T16:08:22.404Z,49.60
2019-05-19T16:10:51.307Z,50.00
2019-05-19T16:13:21.996Z,51.50
2019-05-19T16:15:49.751Z,49.80
2019-05-19T16:18:18.156Z,52.30
2019-05-19T16:20:46.528Z,51.20
2019-05-19T16:23:14.927Z,52.30
2019-05-19T16:25:43.286Z,50.90
2019-05-19T16:28:11.676Z,52.10
2019-05-19T16:30:40.060Z,52.00
2019-05-19T16:33:08.465Z,51.90
2019-05-19T16:35:36.868Z,51.20
2019-05-19T16:38:05.387Z,52.70
2019-05-19T16:40:33.767Z,53.40
2019-05-19T16:43:02.559Z,54.10
2019-05-19T16:45:31.154Z,54.60
2019-05-19T16:47:59.499Z,53.90
2019-05-19T16:50:27.895Z,54.90
2019-05-19T16:52:58.025Z,55.80
2019-05-19T16:55:28.354Z,56.90
2019-05-19T16:57:56.962Z,56.40
2019-05-19T17:00:26.317Z,57.30
2019-05-19T17:02:55.090Z,58.10
2019-05-19T17:05:23.515Z,59.50
2019-05-19T17:07:51.985Z,60.40
2019-05-19T17:10:20.351Z,63.30
2019-05-19T17:12:48.931Z,65.20
2019-05-19T17:15:17.295Z,65.60
2019-05-19T17:17:45.691Z,67.70
2019-05-19T17:20:14.150Z,68.70
2019-05-19T17:22:42.528Z,70.30
2019-05-19T17:25:10.997Z,71.50
2019-05-19T17:27:39.382Z,73.40
2019-05-19T17:30:09.722Z,74.00
2019-05-19T17:32:38.190Z,74.00
2019-05-19T17:35:06.903Z,73.70
2019-05-19T17:37:35.490Z,73.40
2019-05-19T17:40:04.427Z,73.30
2019-05-19T17:42:32.998Z,72.30
2019-05-19T17:45:01.533Z,70.10
2019-05-19T17:47:29.909Z,69.90
2019-05-19T17:49:58.266Z,71.50
2019-05-19T17:52:26.793Z,73.10
2019-05-19T17:54:55.392Z,72.90
2019-05-19T17:57:23.889Z,70.80
2019-05-19T17:59:52.307Z,72.50
2019-05-19T18:02:20.728Z,72.00
2019-05-19T18:04:49.158Z,72.40
2019-05-19T18:07:17.507Z,72.30
2019-05-19T18:09:45.887Z,72.60
2019-05-19T18:12:14.305Z,71.50
2019-05-19T18:14:42.672Z,73.00
2019-05-19T18:17:11.048Z,73.00
2019-05-19T18:19:39.444Z,71.90
2019-05-19T18:22:07.877Z,68.60
2019-05-19T18:24:36.227Z,66.80
2019-05-19T18:27:04.711Z,66.70
2019-05-19T18:29:33.679Z,67.20
2019-05-19T18:32:02.046Z,67.60
2019-05-19T18:34:30.497Z,68.30
2019-05-19T18:36:59.059Z,68.90
2019-05-19T18:39:27.457Z,69.20
2019-05-19T18:41:56.261Z,70.20
2019-05-19T18:44:24.656Z,70.60
2019-05-19T18:46:53.037Z,70.80
2019-05-19T18:49:21.430Z,71.80
2019-05-19T18:51:49.806Z,70.70
2019-05-19T18:54:18.203Z,70.00
2019-05-19T18:56:46.587Z,69.90
2019-05-19T18:59:14.985Z,70.00
2019-05-19T19:01:43.354Z,70.30
2019-05-19T19:04:12.164Z,70.90
2019-05-19T19:06:40.557Z,70.90
2019-05-19T19:09:08.947Z,71.10
2019-05-19T19:11:37.341Z,71.00
2019-05-19T19:14:05.751Z,71.30
2019-05-19T19:16:34.123Z,72.60
2019-05-19T19:19:02.520Z,72.40
2019-05-19T19:21:31.047Z,72.80
2019-05-19T19:23:59.431Z,72.30
2019-05-19T19:26:27.862Z,72.30
2019-05-19T19:28:56.332Z,72.00
2019-05-19T19:31:24.711Z,73.50
2019-05-19T19:33:53.104Z,73.40
2019-05-19T19:36:21.496Z,73.00
2019-05-19T19:38:50.009Z,73.00
2019-05-19T19:41:18.614Z,72.80
2019-05-19T19:43:47.040Z,72.80
2019-05-19T19:46:15.427Z,73.10
2019-05-19T19:48:43.815Z,73.20
2019-05-19T19:51:12.215Z,72.80
2019-05-19T19:53:40.599Z,73.20
2019-05-19T19:56:08.983Z,73.20
2019-05-19T19:58:37.364Z,73.10
2019-05-19T20:01:05.768Z,72.60
2019-05-19T20:03:39.421Z,73.30
2019-05-19T20:06:04.228Z,73.80
2019-05-19T20:08:32.609Z,74.30
2019-05-19T20:11:00.991Z,75.20
2019-05-19T20:13:29.363Z,75.60
2019-05-19T20:15:57.766Z,75.70
2019-05-19T20:18:26.205Z,76.80
2019-05-19T20:20:54.660Z,76.80
2019-05-19T20:23:23.099Z,76.70
2019-05-19T20:25:51.885Z,76.80
2019-05-19T20:28:20.264Z,75.60
2019-05-19T20:30:49.599Z,75.10
2019-05-19T20:33:18.613Z,74.90
2019-05-19T20:35:47.465Z,76.20
2019-05-19T20:38:16.189Z,77.40
2019-05-19T20:40:44.692Z,78.30
2019-05-19T20:43:13.060Z,78.60
2019-05-19T20:45:41.460Z,79.40
2019-05-19T20:48:12.820Z,80.90
2019-05-19T20:50:41.402Z,82.20
2019-05-19T20:53:10.156Z,82.50
2019-05-19T20:55:38.647Z,81.70
2019-05-19T20:58:07.103Z,81.90
2019-05-19T21:00:49.437Z,82.10
2019-05-19T21:03:05.523Z,83.30
2019-05-19T21:05:35.179Z,83.70
2019-05-19T21:08:03.546Z,84.60
2019-05-19T21:10:31.935Z,85.30
2019-05-19T21:13:00.320Z,84.70
2019-05-19T21:15:28.857Z,85.30
2019-05-19T21:17:57.355Z,85.90
2019-05-19T21:20:25.752Z,85.70
2019-05-19T21:22:54.139Z,84.40
2019-05-19T21:25:22.536Z,84.40
2019-05-19T21:27:51.051Z,84.20
2019-05-19T21:30:19.784Z,84.10
2019-05-19T21:32:48.197Z,83.70
2019-05-19T21:35:16.580Z,84.20
2019-05-19T21:37:44.956Z,83.00
2019-05-19T21:40:13.351Z,83.50
2019-05-19T21:42:41.741Z,85.90
2019-05-19T21:45:10.130Z,85.60
2019-05-19T21:47:38.507Z,85.70
2019-05-19T21:50:07.385Z,85.60
2019-05-19T21:52:35.772Z,88.00
2019-05-19T21:55:06.301Z,90.00
2019-05-19T21:57:34.742Z,90.10
2019-05-19T22:00:03.294Z,90.60
2019-05-19T22:02:31.733Z,90.00
2019-05-19T22:05:01.646Z,90.40
2019-05-19T22:07:48.043Z,90.70
2019-05-19T22:10:16.504Z,90.40
2019-05-19T22:12:44.882Z,90.30
2019-05-19T22:15:13.255Z,89.70
2019-05-19T22:17:41.661Z,90.70
2019-05-19T22:20:10.023Z,90.60
2019-05-19T22:22:38.417Z,90.20
2019-05-19T22:25:07.356Z,89.90
2019-05-19T22:27:35.749Z,89.40
2019-05-19T22:30:05.868Z,88.90
2019-05-19T22:32:34.260Z,88.80
2019-05-19T22:35:02.650Z,87.60
2019-05-19T22:37:31.036Z,87.50
2019-05-19T22:39:59.418Z,87.90
2019-05-19T22:42:27.860Z,88.10
2019-05-19T22:44:56.236Z,88.20
2019-05-19T22:47:24.627Z,88.50
2019-05-19T22:49:52.997Z,88.30
2019-05-19T22:52:21.379Z,88.20
2019-05-19T22:54:49.748Z,86.90
2019-05-19T22:57:18.263Z,87.10
2019-05-19T22:59:46.603Z,87.70
2019-05-19T23:02:15.007Z,88.40
2019-05-19T23:04:43.368Z,87.30
2019-05-19T23:07:11.753Z,87.80
2019-05-19T23:09:40.129Z,89.00
2019-05-19T23:12:08.523Z,88.70
2019-05-19T23:14:36.840Z,89.80
2019-05-19T23:17:05.295Z,89.10
2019-05-19T23:19:33.664Z,90.60
2019-05-19T23:22:02.116Z,88.90
2019-05-19T23:24:30.442Z,88.50
2019-05-19T23:26:58.843Z,88.60
2019-05-19T23:29:27.215Z,87.90
2019-05-19T23:32:06.681Z,88.50
2019-05-19T23:34:25.654Z,89.20
2019-05-19T23:36:54.035Z,88.50
2019-05-19T23:39:22.412Z,87.50
2019-05-19T23:41:50.808Z,86.00
2019-05-19T23:44:19.172Z,87.00
2019-05-19T23:46:47.564Z,87.90
2019-05-19T23:49:15.933Z,86.50
2019-05-19T23:51:44.405Z,84.10
2019-05-19T23:54:12.760Z,83.80
2019-05-19T23:56:41.139Z,84.20
2019-05-19T23:59:09.588Z,84.00
